createdAt,value
2022-09-15T00:03:15.374Z,0.93
2022-09-15T00:06:38.908Z,1.10
2022-09-15T00:10:03.483Z,1.10
2022-09-15T00:13:28.400Z,1.23
2022-09-15T00:16:52.165Z,1.10
2022-09-15T00:20:16.328Z,1.20
2022-09-15T00:23:40.283Z,1.00
2022-09-15T00:27:04.106Z,1.17
2022-09-15T00:30:28.970Z,0.90
2022-09-15T00:33:56.721Z,1.00
2022-09-15T00:37:20.400Z,1.10
2022-09-15T00:40:49.863Z,1.10
2022-09-15T00:44:51.800Z,0.97
2022-09-15T00:48:23.491Z,1.03
2022-09-15T00:51:53.494Z,1.00
2022-09-15T00:55:23.394Z,1.10
2022-09-15T00:58:53.536Z,1.00
2022-09-15T01:02:22.250Z,0.80
2022-09-15T01:05:54.339Z,1.00
2022-09-15T01:09:24.066Z,0.70
2022-09-15T01:12:48.438Z,0.80
2022-09-15T01:16:28.113Z,0.80
2022-09-15T01:20:51.098Z,0.80
2022-09-15T01:25:04.262Z,0.80
2022-09-15T01:28:52.296Z,1.03
2022-09-15T01:32:44.066Z,1.10
2022-09-15T01:36:19.128Z,0.90
2022-09-15T01:39:47.871Z,0.77
2022-09-15T01:43:12.345Z,0.93
2022-09-15T01:46:46.803Z,1.10
2022-09-15T01:50:19.167Z,0.80
2022-09-15T01:53:43.018Z,1.10
2022-09-15T01:57:06.905Z,0.87
2022-09-15T02:04:46.930Z,1.00
2022-09-15T02:08:25.153Z,1.10
2022-09-15T02:12:03.636Z,0.90
2022-09-15T02:15:37.797Z,1.10
2022-09-15T02:19:18.172Z,1.10
2022-09-15T02:22:50.128Z,1.10
2022-09-15T02:26:19.871Z,0.80
2022-09-15T02:29:47.852Z,0.90
2022-09-15T02:33:19.662Z,0.83
2022-09-15T02:36:44.452Z,0.70
2022-09-15T02:40:09.946Z,0.83
2022-09-15T02:43:34.845Z,0.73
2022-09-15T02:46:59.048Z,0.90
2022-09-15T02:50:22.849Z,0.90
2022-09-15T02:53:47.130Z,0.70
2022-09-15T02:57:10.868Z,0.90
2022-09-15T03:00:38.420Z,0.83
2022-09-15T03:04:03.544Z,0.90
2022-09-15T03:07:28.446Z,0.70
2022-09-15T03:10:52.274Z,0.90
2022-09-15T03:14:15.711Z,0.97
2022-09-15T03:17:43.929Z,1.00
2022-09-15T03:21:10.709Z,0.90
2022-09-15T03:24:34.232Z,0.90
2022-09-15T03:27:58.195Z,0.87
2022-09-15T03:31:21.991Z,0.90
2022-09-15T03:34:46.821Z,1.17
2022-09-15T03:38:10.714Z,0.90
2022-09-15T03:41:34.978Z,0.90
2022-09-15T03:44:58.794Z,0.80
2022-09-15T03:48:22.677Z,1.00
2022-09-15T03:51:47.502Z,1.10
2022-09-15T03:55:11.641Z,0.90
2022-09-15T03:58:35.447Z,0.87
2022-09-15T04:01:59.022Z,0.90
2022-09-15T04:05:22.895Z,0.80
2022-09-15T04:08:47.749Z,1.00
2022-09-15T04:12:11.622Z,0.90
2022-09-15T04:15:35.396Z,1.00
2022-09-15T04:18:59.589Z,0.90
2022-09-15T04:22:23.597Z,1.00
2022-09-15T04:25:56.831Z,0.90
2022-09-15T04:29:20.766Z,0.80
2022-09-15T04:32:44.556Z,1.50
2022-09-15T04:36:11.748Z,1.00
2022-09-15T04:39:35.543Z,1.10
2022-09-15T04:43:00.392Z,0.87
2022-09-15T04:46:24.255Z,1.00
2022-09-15T04:49:47.944Z,1.00
2022-09-15T04:53:11.404Z,0.90
2022-09-15T04:56:34.848Z,0.90
2022-09-15T04:59:59.723Z,0.80
2022-09-15T05:03:23.160Z,1.00
2022-09-15T05:06:46.918Z,0.90
2022-09-15T05:10:11.078Z,0.87
2022-09-15T05:13:36.296Z,1.10
2022-09-15T05:17:01.067Z,0.90
2022-09-15T05:20:24.855Z,0.83
2022-09-15T05:23:48.976Z,0.80
2022-09-15T05:27:12.347Z,0.80
2022-09-15T05:30:39.528Z,0.97
2022-09-15T05:34:07.224Z,1.10
2022-09-15T05:37:30.630Z,0.90
2022-09-15T05:40:53.991Z,0.80
2022-09-15T05:44:17.789Z,0.87
2022-09-15T05:47:41.124Z,0.80
2022-09-15T05:51:06.763Z,0.80
2022-09-15T05:54:30.654Z,0.90
2022-09-15T05:57:54.423Z,0.70
2022-09-15T06:01:20.721Z,0.90
2022-09-15T06:04:44.410Z,1.00
2022-09-15T06:08:09.440Z,0.90
2022-09-15T06:11:34.468Z,1.00
2022-09-15T06:14:58.212Z,0.87
2022-09-15T06:18:21.592Z,0.90
2022-09-15T06:21:45.269Z,0.90
2022-09-15T06:25:11.666Z,0.90
2022-09-15T06:28:35.234Z,1.03
2022-09-15T06:32:02.685Z,1.07
2022-09-15T06:35:26.352Z,0.90
2022-09-15T06:38:50.779Z,0.80
2022-09-15T06:42:15.827Z,1.10
2022-09-15T06:45:39.631Z,0.80
2022-09-15T06:49:03.718Z,0.70
2022-09-15T06:52:27.289Z,0.90
2022-09-15T06:55:51.546Z,0.70
2022-09-15T06:59:17.957Z,0.80
2022-09-15T07:02:41.815Z,0.70
2022-09-15T07:06:07.486Z,0.90
2022-09-15T07:09:31.535Z,0.90
2022-09-15T07:12:55.447Z,0.83
2022-09-15T07:16:22.548Z,0.70
2022-09-15T07:19:46.074Z,0.80
2022-09-15T07:23:09.875Z,0.77
2022-09-15T07:26:33.811Z,0.80
2022-09-15T07:29:57.764Z,0.80
2022-09-15T07:33:26.768Z,0.70
2022-09-15T07:36:50.670Z,0.73
2022-09-15T07:40:14.831Z,0.80
2022-09-15T07:43:39.458Z,0.80
2022-09-15T07:47:03.664Z,0.80
2022-09-15T07:50:28.908Z,1.10
2022-09-15T07:53:53.462Z,0.90
2022-09-15T07:57:17.374Z,0.70
2022-09-15T08:00:40.841Z,0.80
2022-09-15T08:04:04.484Z,0.80
2022-09-15T08:07:29.277Z,0.60
2022-09-15T08:10:53.128Z,0.60
2022-09-15T08:14:16.579Z,0.77
2022-09-15T08:17:40.345Z,0.73
2022-09-15T08:21:07.212Z,0.90
2022-09-15T08:24:32.060Z,0.80
2022-09-15T08:27:56.387Z,0.97
2022-09-15T08:31:20.240Z,1.00
2022-09-15T08:34:44.087Z,0.90
2022-09-15T08:38:08.663Z,0.80
2022-09-15T08:41:37.357Z,0.80
2022-09-15T08:45:04.390Z,0.70
2022-09-15T08:48:32.243Z,0.70
2022-09-15T08:52:02.302Z,0.87
2022-09-15T08:55:38.323Z,0.80
2022-09-15T08:59:04.234Z,0.80
2022-09-15T09:03:07.141Z,0.80
2022-09-15T09:06:38.877Z,0.90
2022-09-15T09:10:13.511Z,0.60
2022-09-15T09:14:05.636Z,0.80
2022-09-15T09:17:49.556Z,0.70
2022-09-15T09:21:26.527Z,0.80
2022-09-15T09:24:54.280Z,0.77
2022-09-15T09:28:31.060Z,0.73
2022-09-15T09:31:56.229Z,0.90
2022-09-15T09:35:33.169Z,0.77
2022-09-15T09:38:58.527Z,0.80
2022-09-15T09:42:31.003Z,0.90
2022-09-15T09:45:55.134Z,0.90
2022-09-15T09:49:24.432Z,0.80
2022-09-15T09:52:49.880Z,0.70
2022-09-15T09:56:23.538Z,0.70
2022-09-15T09:59:48.584Z,0.70
2022-09-15T10:03:17.567Z,0.70
2022-09-15T10:06:42.533Z,0.80
2022-09-15T10:10:18.865Z,0.60
2022-09-15T10:13:56.241Z,0.70
2022-09-15T10:17:23.913Z,0.70
2022-09-15T10:20:54.221Z,0.73
2022-09-15T10:24:34.681Z,0.77
2022-09-15T10:28:16.533Z,0.70
2022-09-15T10:31:40.893Z,0.60
2022-09-15T10:35:12.616Z,0.70
2022-09-15T10:38:44.610Z,0.83
2022-09-15T10:42:19.980Z,0.73
2022-09-15T10:45:50.178Z,1.00
2022-09-15T10:49:34.228Z,1.17
2022-09-15T10:53:14.606Z,1.00
2022-09-15T10:56:42.820Z,1.03
2022-09-15T11:00:11.984Z,1.53
2022-09-15T11:04:12.537Z,1.73
2022-09-15T11:07:46.404Z,1.30
2022-09-15T11:11:19.994Z,1.50
2022-09-15T11:15:01.807Z,1.67
2022-09-15T11:18:56.358Z,1.60
2022-09-15T11:22:25.573Z,1.70
2022-09-15T11:25:54.070Z,1.50
2022-09-15T11:29:23.319Z,1.50
2022-09-15T11:32:54.230Z,1.30
2022-09-15T11:36:33.251Z,1.30
2022-09-15T11:40:03.940Z,1.60
2022-09-15T11:43:38.554Z,1.60
2022-09-15T11:47:17.691Z,1.70
2022-09-15T11:50:46.153Z,1.80
2022-09-15T11:54:18.693Z,1.60
2022-09-15T11:57:52.250Z,1.60
2022-09-15T12:01:20.839Z,1.60
2022-09-15T12:04:51.626Z,1.70
2022-09-15T12:08:19.821Z,1.73
2022-09-15T12:11:47.516Z,1.67
2022-09-15T12:15:16.958Z,1.70
2022-09-15T12:18:47.482Z,1.60
2022-09-15T12:22:18.637Z,1.33
2022-09-15T12:26:01.580Z,2.20
2022-09-15T12:29:42.216Z,1.70
2022-09-15T12:33:45.049Z,1.70
2022-09-15T12:37:13.741Z,1.70
2022-09-15T12:40:39.737Z,1.40
2022-09-15T12:44:15.804Z,1.67
2022-09-15T12:47:49.653Z,1.57
2022-09-15T12:51:21.736Z,2.17
2022-09-15T12:54:52.011Z,2.20
2022-09-15T12:58:21.417Z,2.23
2022-09-15T13:01:50.381Z,1.60
2022-09-15T13:06:12.118Z,1.67
2022-09-15T13:09:45.903Z,1.70
2022-09-15T13:13:34.790Z,1.70
2022-09-15T13:17:05.193Z,1.70
2022-09-15T13:20:37.830Z,1.63
2022-09-15T13:24:08.129Z,2.00
2022-09-15T13:27:37.977Z,1.37
2022-09-15T13:31:20.600Z,1.83
2022-09-15T13:35:28.521Z,1.30
2022-09-15T13:39:12.283Z,2.00
2022-09-15T13:42:57.572Z,1.60
2022-09-15T13:46:40.597Z,1.50
2022-09-15T13:50:16.082Z,1.80
2022-09-15T13:53:49.857Z,1.40
2022-09-15T13:57:15.197Z,1.50
2022-09-15T14:00:55.161Z,1.43
2022-09-15T14:04:24.281Z,1.40
2022-09-15T14:08:01.123Z,1.70
2022-09-15T14:11:31.505Z,1.60
2022-09-15T14:14:59.029Z,1.40
2022-09-15T14:18:22.832Z,1.70
2022-09-15T14:21:49.444Z,1.40
2022-09-15T14:25:18.161Z,1.77
2022-09-15T14:28:49.832Z,1.77
2022-09-15T14:32:16.493Z,1.77
2022-09-15T14:35:40.312Z,1.63
2022-09-15T14:39:18.259Z,1.73
2022-09-15T14:42:42.459Z,2.20
2022-09-15T14:46:12.952Z,1.50
2022-09-15T14:49:38.453Z,1.87
2022-09-15T14:53:06.202Z,2.10
2022-09-15T14:56:34.870Z,1.70
2022-09-15T15:00:03.507Z,1.70
2022-09-15T15:03:35.502Z,1.70
2022-09-15T15:07:13.370Z,1.70
2022-09-15T15:10:37.813Z,1.50
2022-09-15T15:14:03.355Z,1.80
2022-09-15T15:17:35.032Z,1.57
2022-09-15T15:20:59.144Z,1.47
2022-09-15T15:24:24.608Z,1.90
2022-09-15T15:27:54.038Z,2.03
2022-09-15T15:31:19.946Z,2.00
2022-09-15T15:34:50.912Z,1.60
2022-09-15T15:38:19.452Z,1.80
2022-09-15T15:41:45.028Z,2.40
2022-09-15T15:45:25.091Z,2.57
2022-09-15T15:48:52.178Z,1.80
2022-09-15T15:52:16.213Z,2.00
2022-09-15T15:55:42.428Z,2.00
2022-09-15T15:59:07.552Z,2.37
2022-09-15T16:02:31.494Z,1.90
2022-09-15T16:06:02.939Z,2.27
2022-09-15T16:09:26.958Z,2.00
2022-09-15T16:12:50.592Z,2.20
2022-09-15T16:16:19.493Z,2.17
2022-09-15T16:19:42.998Z,2.10
2022-09-15T16:23:07.275Z,2.00
2022-09-15T16:26:31.331Z,2.07
2022-09-15T16:29:55.255Z,2.33
2022-09-15T16:33:21.806Z,2.00
2022-09-15T16:36:45.351Z,2.23
2022-09-15T16:40:10.035Z,1.93
2022-09-15T16:43:33.876Z,2.07
2022-09-15T16:46:57.345Z,2.03
2022-09-15T16:50:22.501Z,1.83
2022-09-15T16:53:47.569Z,2.00
2022-09-15T16:57:11.274Z,2.10
2022-09-15T17:00:38.458Z,1.90
2022-09-15T17:04:03.236Z,1.90
2022-09-15T17:07:28.401Z,2.20
2022-09-15T17:10:53.833Z,2.17
2022-09-15T17:14:18.523Z,2.27
2022-09-15T17:17:42.391Z,2.30
2022-09-15T17:21:06.343Z,2.10
2022-09-15T17:24:31.191Z,1.80
2022-09-15T17:27:55.897Z,1.90
2022-09-15T17:31:22.548Z,2.07
2022-09-15T17:34:46.586Z,1.90
2022-09-15T17:38:10.689Z,1.90
2022-09-15T17:41:35.934Z,1.63
2022-09-15T17:44:59.438Z,1.97
2022-09-15T17:48:23.874Z,2.10
2022-09-15T17:51:47.665Z,2.00
2022-09-15T17:55:17.264Z,1.83
2022-09-15T17:58:43.119Z,1.47
2022-09-15T18:02:18.321Z,1.97
2022-09-15T18:05:42.358Z,1.70
2022-09-15T18:09:06.337Z,1.90
2022-09-15T18:12:30.138Z,1.80
2022-09-15T18:15:56.213Z,1.70
2022-09-15T18:19:20.020Z,1.70
2022-09-15T18:22:44.469Z,2.00
2022-09-15T18:26:08.402Z,1.80
2022-09-15T18:29:32.405Z,1.80
2022-09-15T18:32:57.885Z,1.53
2022-09-15T18:36:21.744Z,1.73
2022-09-15T18:39:45.767Z,1.80
2022-09-15T18:43:09.908Z,2.00
2022-09-15T18:46:33.758Z,1.70
2022-09-15T18:49:59.059Z,1.60
2022-09-15T18:53:22.896Z,1.47
2022-09-15T18:56:46.703Z,1.60
2022-09-15T19:00:15.097Z,1.73
2022-09-15T19:03:44.039Z,2.20
2022-09-15T19:07:09.680Z,2.40
2022-09-15T19:10:33.650Z,1.80
2022-09-15T19:13:57.704Z,1.60
2022-09-15T19:17:21.683Z,1.67
2022-09-15T19:20:45.454Z,1.50
2022-09-15T19:24:10.643Z,1.70
2022-09-15T19:27:35.025Z,1.70
2022-09-15T19:30:59.280Z,1.70
2022-09-15T19:34:22.850Z,1.67
2022-09-15T19:37:46.900Z,1.87
2022-09-15T19:41:14.215Z,1.77
2022-09-15T19:44:38.297Z,2.00
2022-09-15T19:48:01.968Z,1.90
2022-09-15T19:51:26.347Z,1.90
2022-09-15T19:54:49.866Z,1.60
2022-09-15T19:58:14.673Z,1.73
2022-09-15T20:01:38.230Z,1.90
2022-09-15T20:05:01.736Z,1.60
2022-09-15T20:08:26.777Z,1.63
2022-09-15T20:11:50.638Z,1.60
2022-09-15T20:15:15.880Z,2.07
2022-09-15T20:18:41.400Z,2.10
2022-09-15T20:22:05.726Z,1.90
2022-09-15T20:25:29.503Z,1.70
2022-09-15T20:28:54.006Z,2.20
2022-09-15T20:32:22.785Z,2.13
2022-09-15T20:35:48.396Z,1.90
2022-09-15T20:39:15.097Z,1.87
2022-09-15T20:42:39.208Z,2.00
2022-09-15T20:46:05.917Z,1.80
2022-09-15T20:49:31.079Z,1.80
2022-09-15T20:52:54.492Z,2.13
2022-09-15T20:56:23.091Z,2.00
2022-09-15T20:59:46.889Z,1.80
2022-09-15T21:03:10.630Z,2.17
2022-09-15T21:06:36.047Z,2.20
2022-09-15T21:09:59.868Z,2.30
2022-09-15T21:13:24.087Z,1.97
2022-09-15T21:16:48.094Z,2.00
2022-09-15T21:20:12.097Z,1.90
2022-09-15T21:23:40.107Z,2.00
2022-09-15T21:27:21.283Z,2.00
2022-09-15T21:30:45.063Z,1.80
2022-09-15T21:34:08.796Z,2.10
2022-09-15T21:37:32.994Z,1.80
2022-09-15T21:40:57.855Z,2.17
2022-09-15T21:44:21.578Z,2.40
2022-09-15T21:47:44.964Z,2.20
2022-09-15T21:51:11.155Z,2.20
2022-09-15T21:54:34.590Z,2.20
2022-09-15T21:57:59.551Z,2.33
2022-09-15T22:01:25.762Z,2.20
2022-09-15T22:04:49.601Z,1.93
2022-09-15T22:08:15.196Z,2.77
2022-09-15T22:11:39.987Z,2.20
2022-09-15T22:15:06.084Z,2.00
2022-09-15T22:18:29.626Z,1.77
2022-09-15T22:21:53.363Z,2.03
2022-09-15T22:25:21.668Z,1.90
2022-09-15T22:28:45.943Z,2.00
2022-09-15T22:32:10.738Z,2.47
2022-09-15T22:35:34.188Z,2.10
2022-09-15T22:39:03.495Z,2.00
2022-09-15T22:42:27.877Z,1.80
2022-09-15T22:45:51.356Z,1.83
2022-09-15T22:49:16.193Z,2.07
2022-09-15T22:52:39.925Z,1.83
2022-09-15T22:56:09.931Z,2.00
2022-09-15T22:59:33.660Z,1.80
2022-09-15T23:02:57.057Z,2.20
2022-09-15T23:06:22.847Z,1.97
2022-09-15T23:09:46.589Z,2.33
2022-09-15T23:13:11.885Z,2.80
2022-09-15T23:16:35.466Z,2.07
2022-09-15T23:19:59.377Z,2.53
2022-09-15T23:23:24.240Z,1.90
2022-09-15T23:26:47.677Z,2.47
2022-09-15T23:30:12.891Z,2.50
2022-09-15T23:33:36.349Z,2.00
2022-09-15T23:37:00.169Z,1.80
2022-09-15T23:40:26.171Z,2.07
2022-09-15T23:43:49.598Z,1.70
2022-09-15T23:47:13.337Z,2.20
2022-09-15T23:50:38.300Z,1.80
2022-09-15T23:54:03.275Z,1.93
2022-09-15T23:57:28.049Z,2.20
